createdAt,value
2022-09-18T00:01:33.518Z,5.37
2022-09-18T00:04:04.626Z,5.80
2022-09-18T00:06:36.578Z,6.28
2022-09-18T00:09:06.935Z,5.75
2022-09-18T00:11:40.830Z,5.30
2022-09-18T00:14:11.719Z,6.10
2022-09-18T00:16:39.826Z,4.90
2022-09-18T00:19:07.739Z,5.97
2022-09-18T00:21:37.648Z,5.82
2022-09-18T00:24:07.107Z,5.97
2022-09-18T00:26:35.718Z,5.80
2022-09-18T00:29:03.963Z,6.03
2022-09-18T00:31:35.672Z,6.20
2022-09-18T00:34:06.345Z,6.50
2022-09-18T00:36:35.729Z,6.10
2022-09-18T00:39:04.137Z,6.20
2022-09-18T00:41:34.413Z,6.90
2022-09-18T00:44:32.745Z,6.80
2022-09-18T00:47:12.574Z,6.25
2022-09-18T00:50:05.040Z,6.75
2022-09-18T00:52:49.648Z,6.40
2022-09-18T00:55:22.634Z,7.03
2022-09-18T00:57:54.814Z,6.35
2022-09-18T01:00:23.620Z,7.57
2022-09-18T01:02:51.709Z,6.75
2022-09-18T01:05:24.828Z,7.23
2022-09-18T01:07:58.409Z,7.03
2022-09-18T01:10:33.773Z,7.57
2022-09-18T01:13:05.457Z,7.63
2022-09-18T01:15:54.991Z,7.55
2022-09-18T01:18:41.447Z,8.63
2022-09-18T01:21:14.857Z,8.43
2022-09-18T01:24:03.711Z,8.73
2022-09-18T01:26:45.713Z,8.75
2022-09-18T01:29:31.561Z,10.25
2022-09-18T01:32:26.536Z,10.13
2022-09-18T01:35:39.880Z,10.20
2022-09-18T01:38:34.351Z,9.95
2022-09-18T01:41:12.529Z,9.35
2022-09-18T01:43:44.677Z,8.70
2022-09-18T01:46:16.872Z,9.10
2022-09-18T01:49:14.898Z,8.30
2022-09-18T01:51:50.220Z,7.25
2022-09-18T01:54:31.727Z,7.68
2022-09-18T01:57:11.121Z,6.97
2022-09-18T01:59:47.182Z,6.83
2022-09-18T02:02:32.805Z,6.72
2022-09-18T02:05:02.828Z,7.13
2022-09-18T02:07:45.884Z,6.47
2022-09-18T02:10:13.933Z,6.55
2022-09-18T02:12:44.339Z,7.07
2022-09-18T02:15:15.038Z,5.57
2022-09-18T02:17:59.305Z,6.55
2022-09-18T02:20:39.952Z,6.53
2022-09-18T02:23:09.444Z,6.65
2022-09-18T02:25:42.423Z,6.53
2022-09-18T02:28:13.690Z,8.13
2022-09-18T02:30:42.781Z,7.40
2022-09-18T02:33:29.589Z,6.95
2022-09-18T02:36:21.677Z,7.78
2022-09-18T02:39:16.938Z,7.27
2022-09-18T02:41:59.434Z,7.28
2022-09-18T02:44:33.606Z,8.10
2022-09-18T02:47:26.331Z,7.82
2022-09-18T02:49:59.511Z,8.07
2022-09-18T02:52:35.967Z,8.23
2022-09-18T02:55:16.755Z,7.30
2022-09-18T02:57:50.347Z,7.95
2022-09-18T03:00:19.068Z,8.10
2022-09-18T03:02:51.133Z,7.85
2022-09-18T03:05:31.231Z,7.40
2022-09-18T03:08:00.617Z,9.18
2022-09-18T03:10:29.896Z,8.90
2022-09-18T03:12:57.871Z,8.23
2022-09-18T03:15:28.163Z,9.15
2022-09-18T03:17:57.055Z,10.00
2022-09-18T03:20:24.569Z,9.88
2022-09-18T03:22:52.193Z,9.10
2022-09-18T03:25:19.977Z,9.68
2022-09-18T03:27:47.598Z,9.90
2022-09-18T03:30:24.585Z,9.30
2022-09-18T03:32:52.089Z,9.38
2022-09-18T03:35:20.154Z,10.18
2022-09-18T03:37:49.128Z,9.55
2022-09-18T03:40:21.514Z,9.30
2022-09-18T03:42:51.098Z,9.70
2022-09-18T03:45:18.667Z,9.65
2022-09-18T03:47:47.119Z,9.50
2022-09-18T03:50:15.449Z,9.40
2022-09-18T03:52:45.657Z,8.63
2022-09-18T03:55:42.798Z,9.43
2022-09-18T03:58:28.592Z,9.95
2022-09-18T04:01:01.976Z,8.82
2022-09-18T04:03:38.962Z,9.57
2022-09-18T04:06:26.330Z,8.55
2022-09-18T04:09:13.969Z,8.40
2022-09-18T04:11:49.403Z,8.77
2022-09-18T04:14:16.841Z,8.68
2022-09-18T04:16:45.833Z,8.02
2022-09-18T04:19:13.335Z,8.40
2022-09-18T04:21:40.928Z,8.40
2022-09-18T04:24:08.742Z,8.43
2022-09-18T04:26:37.043Z,8.68
2022-09-18T04:29:05.647Z,8.13
2022-09-18T04:31:37.143Z,8.55
2022-09-18T04:34:08.732Z,9.57
2022-09-18T04:36:36.472Z,9.65
2022-09-18T04:39:04.642Z,9.77
2022-09-18T04:41:32.224Z,10.50
2022-09-18T04:44:00.160Z,11.32
2022-09-18T04:46:27.705Z,11.23
2022-09-18T04:48:55.485Z,11.25
2022-09-18T04:51:28.509Z,10.93
2022-09-18T04:53:56.166Z,11.38
2022-09-18T04:56:24.708Z,10.68
2022-09-18T04:58:53.506Z,10.53
2022-09-18T05:01:21.059Z,10.77
2022-09-18T05:03:48.856Z,11.23
2022-09-18T05:06:25.295Z,7.93
2022-09-18T05:08:53.463Z,8.25
2022-09-18T05:11:25.122Z,6.80
2022-09-18T05:13:56.962Z,6.70
2022-09-18T05:16:27.819Z,6.25
2022-09-18T05:19:21.355Z,6.07
2022-09-18T05:21:50.687Z,5.93
2022-09-18T05:24:19.207Z,5.47
2022-09-18T05:26:48.831Z,6.50
2022-09-18T05:29:20.340Z,6.13
2022-09-18T05:31:49.071Z,5.85
2022-09-18T05:34:17.099Z,5.68
2022-09-18T05:36:46.590Z,5.80
2022-09-18T05:39:17.448Z,5.00
2022-09-18T05:41:48.539Z,5.20
2022-09-18T05:44:16.151Z,5.80
2022-09-18T05:46:43.803Z,4.90
2022-09-18T05:49:11.336Z,4.63
2022-09-18T05:51:39.383Z,4.70
2022-09-18T05:54:07.035Z,4.45
2022-09-18T05:56:42.881Z,4.57
2022-09-18T05:59:11.598Z,4.13
2022-09-18T06:01:42.569Z,4.50
2022-09-18T06:04:12.559Z,3.80
2022-09-18T06:06:52.801Z,3.72
2022-09-18T06:09:20.379Z,3.75
2022-09-18T06:11:48.727Z,3.85
2022-09-18T06:14:17.493Z,3.57
2022-09-18T06:16:47.228Z,3.60
2022-09-18T06:19:14.791Z,3.80
2022-09-18T06:21:44.941Z,3.50
2022-09-18T06:24:16.199Z,4.15
2022-09-18T06:26:58.445Z,3.37
2022-09-18T06:29:27.678Z,3.58
2022-09-18T06:32:04.525Z,3.50
2022-09-18T06:34:37.990Z,3.60
2022-09-18T06:37:10.439Z,3.90
2022-09-18T06:39:44.183Z,3.33
2022-09-18T06:42:34.790Z,3.40
2022-09-18T06:45:13.744Z,3.00
2022-09-18T06:47:41.611Z,3.85
2022-09-18T06:50:09.864Z,3.40
2022-09-18T06:52:37.935Z,2.97
2022-09-18T06:55:06.489Z,3.00
2022-09-18T06:57:34.438Z,3.28
2022-09-18T07:00:02.151Z,3.17
2022-09-18T07:02:37.279Z,3.17
2022-09-18T07:05:27.782Z,3.07
2022-09-18T07:07:55.321Z,3.30
2022-09-18T07:10:24.804Z,3.30
2022-09-18T07:12:59.454Z,3.50
2022-09-18T07:15:29.427Z,3.42
2022-09-18T07:17:58.621Z,3.30
2022-09-18T07:20:27.083Z,3.70
2022-09-18T07:22:56.972Z,3.28
2022-09-18T07:25:36.742Z,3.50
2022-09-18T07:28:08.213Z,3.55
2022-09-18T07:30:41.745Z,3.93
2022-09-18T07:33:10.576Z,3.63
2022-09-18T07:35:44.500Z,3.35
2022-09-18T07:38:14.081Z,3.25
2022-09-18T07:40:53.979Z,3.53
2022-09-18T07:43:30.333Z,3.40
2022-09-18T07:45:59.711Z,3.60
2022-09-18T07:48:30.066Z,3.17
2022-09-18T07:51:06.841Z,3.47
2022-09-18T07:53:37.775Z,3.53
2022-09-18T07:56:10.534Z,3.43
2022-09-18T07:58:38.814Z,3.10
2022-09-18T08:01:12.121Z,3.40
2022-09-18T08:03:45.165Z,3.30
2022-09-18T08:06:13.542Z,3.60
2022-09-18T08:08:55.035Z,3.63
2022-09-18T08:11:36.288Z,4.00
2022-09-18T08:14:29.064Z,3.70
2022-09-18T08:17:21.606Z,3.90
2022-09-18T08:20:15.385Z,4.28
2022-09-18T08:22:51.141Z,3.90
2022-09-18T08:25:25.295Z,3.80
2022-09-18T08:27:53.148Z,4.15
2022-09-18T08:30:46.475Z,3.90
2022-09-18T08:33:14.042Z,4.05
2022-09-18T08:35:41.971Z,4.47
2022-09-18T08:38:23.697Z,4.57
2022-09-18T08:41:43.584Z,3.80
2022-09-18T08:44:24.531Z,4.25
2022-09-18T08:47:05.488Z,4.25
2022-09-18T08:49:39.995Z,4.50
2022-09-18T08:52:29.386Z,4.38
2022-09-18T08:55:32.553Z,4.80
2022-09-18T08:58:50.953Z,4.68
2022-09-18T09:01:20.244Z,4.53
2022-09-18T09:04:07.722Z,4.43
2022-09-18T09:06:48.493Z,5.32
2022-09-18T09:10:00.863Z,4.47
2022-09-18T09:12:54.732Z,4.00
2022-09-18T09:15:48.110Z,5.72
2022-09-18T09:18:18.222Z,4.43
2022-09-18T09:20:53.796Z,4.40
2022-09-18T09:23:49.896Z,4.60
2022-09-18T09:26:41.708Z,4.00
2022-09-18T09:29:30.600Z,3.58
2022-09-18T09:32:26.205Z,3.97
2022-09-18T09:35:26.779Z,4.03
2022-09-18T09:38:48.124Z,3.92
2022-09-18T09:41:37.589Z,4.25
2022-09-18T09:44:34.177Z,4.20
2022-09-18T09:47:07.441Z,4.03
2022-09-18T09:49:57.519Z,3.95
2022-09-18T09:52:27.449Z,4.20
2022-09-18T09:55:14.495Z,4.10
2022-09-18T09:58:15.628Z,4.32
2022-09-18T10:01:11.710Z,3.80
2022-09-18T10:04:24.139Z,3.80
2022-09-18T10:07:13.520Z,4.40
2022-09-18T10:09:54.777Z,3.53
2022-09-18T10:12:48.083Z,3.88
2022-09-18T10:15:24.867Z,4.00
2022-09-18T10:17:57.316Z,4.00
2022-09-18T10:20:31.787Z,4.25
2022-09-18T10:23:10.308Z,4.43
2022-09-18T10:25:46.559Z,3.92
2022-09-18T10:28:15.113Z,4.50
2022-09-18T10:31:04.528Z,3.88
2022-09-18T10:33:42.237Z,3.97
2022-09-18T10:36:33.571Z,4.05
2022-09-18T10:39:19.102Z,4.13
2022-09-18T10:41:49.179Z,3.73
2022-09-18T10:44:48.871Z,4.10
2022-09-18T10:47:27.092Z,4.00
2022-09-18T10:50:11.657Z,3.97
2022-09-18T10:52:43.724Z,4.47
2022-09-18T10:55:25.967Z,3.40
2022-09-18T10:58:00.223Z,3.75
2022-09-18T11:00:30.201Z,3.72
2022-09-18T11:03:15.773Z,3.63
2022-09-18T11:05:57.711Z,3.97
2022-09-18T11:08:34.452Z,4.00
2022-09-18T11:11:34.495Z,3.72
2022-09-18T11:14:25.259Z,4.18
2022-09-18T11:17:22.663Z,4.10
2022-09-18T11:19:52.878Z,4.13
2022-09-18T11:22:32.402Z,4.10
2022-09-18T11:25:08.378Z,3.97
2022-09-18T11:27:49.947Z,3.70
2022-09-18T11:30:29.862Z,3.88
2022-09-18T11:33:21.734Z,4.40
2022-09-18T11:35:56.682Z,4.10
2022-09-18T11:38:24.740Z,3.60
2022-09-18T11:40:54.653Z,4.00
2022-09-18T11:43:30.039Z,3.90
2022-09-18T11:45:58.907Z,4.13
2022-09-18T11:48:36.650Z,3.80
2022-09-18T11:51:13.496Z,3.40
2022-09-18T11:53:49.622Z,3.42
2022-09-18T11:56:32.396Z,3.63
2022-09-18T11:59:07.863Z,3.88
2022-09-18T12:01:46.595Z,3.93
2022-09-18T12:04:21.969Z,4.25
2022-09-18T12:07:03.753Z,3.85
2022-09-18T12:09:52.912Z,4.00
2022-09-18T12:12:28.573Z,3.70
2022-09-18T12:15:07.097Z,3.80
2022-09-18T12:22:55.180Z,3.90
2022-09-18T12:25:34.178Z,4.03
2022-09-18T12:28:36.558Z,3.80
2022-09-18T12:31:28.383Z,3.37
2022-09-18T12:34:31.006Z,4.00
2022-09-18T12:37:17.106Z,3.40
2022-09-18T12:40:04.415Z,3.50
2022-09-18T12:43:01.287Z,2.90
2022-09-18T12:45:40.671Z,3.37
2022-09-18T12:48:37.569Z,3.33
2022-09-18T12:51:19.170Z,3.50
2022-09-18T12:54:08.287Z,3.10
2022-09-18T12:56:56.425Z,3.47
2022-09-18T12:59:47.830Z,3.10
2022-09-18T13:02:54.927Z,3.17
2022-09-18T13:05:47.460Z,2.70
2022-09-18T13:08:38.823Z,3.35
2022-09-18T13:11:29.004Z,2.97
2022-09-18T13:14:02.123Z,3.40
2022-09-18T13:17:06.211Z,3.03
2022-09-18T13:19:42.422Z,3.20
2022-09-18T13:22:16.984Z,3.50
2022-09-18T13:24:49.987Z,3.75
2022-09-18T13:27:21.384Z,3.33
2022-09-18T13:29:52.014Z,3.38
2022-09-18T13:32:26.048Z,2.80
2022-09-18T13:35:00.474Z,3.08
2022-09-18T13:37:32.149Z,3.65
2022-09-18T13:40:10.969Z,3.23
2022-09-18T13:42:41.772Z,3.20
2022-09-18T13:45:27.171Z,2.83
2022-09-18T13:48:06.805Z,2.63
2022-09-18T13:50:48.033Z,3.17
2022-09-18T13:53:47.352Z,3.27
2022-09-18T13:56:17.167Z,2.78
2022-09-18T13:58:54.612Z,3.08
2022-09-18T14:01:40.850Z,3.00
2022-09-18T14:04:40.112Z,2.97
2022-09-18T14:07:17.095Z,5.00
2022-09-18T14:09:56.022Z,2.80
2022-09-18T14:12:24.466Z,2.58
2022-09-18T14:15:22.115Z,2.55
2022-09-18T14:18:17.695Z,3.10
2022-09-18T14:20:51.799Z,3.17
2022-09-18T14:23:37.209Z,3.00
2022-09-18T14:26:32.160Z,3.22
2022-09-18T14:29:12.449Z,2.88
2022-09-18T14:31:47.803Z,2.72
2022-09-18T14:34:24.814Z,3.17
2022-09-18T14:36:55.484Z,2.80
2022-09-18T14:39:34.786Z,3.10
2022-09-18T14:42:14.200Z,3.25
2022-09-18T14:44:49.918Z,3.15
2022-09-18T14:47:26.166Z,3.13
2022-09-18T14:49:54.205Z,2.92
2022-09-18T14:52:41.542Z,2.80
2022-09-18T14:55:17.595Z,3.05
2022-09-18T14:57:49.538Z,2.85
2022-09-18T15:00:24.117Z,3.67
2022-09-18T15:02:56.648Z,3.15
2022-09-18T15:05:27.421Z,3.55
2022-09-18T15:08:08.480Z,2.67
2022-09-18T15:10:40.233Z,2.60
2022-09-18T15:13:09.982Z,3.10
2022-09-18T15:15:40.304Z,3.00
2022-09-18T15:18:27.696Z,2.95
2022-09-18T15:20:58.159Z,2.85
2022-09-18T15:23:31.200Z,3.05
2022-09-18T15:26:03.014Z,3.17
2022-09-18T15:28:34.901Z,2.78
2022-09-18T15:31:09.215Z,2.92
2022-09-18T15:33:40.783Z,3.00
2022-09-18T15:36:18.476Z,2.88
2022-09-18T15:38:48.479Z,2.57
2022-09-18T15:41:24.435Z,3.00
2022-09-18T15:43:51.952Z,2.90
2022-09-18T15:46:31.520Z,3.05
2022-09-18T15:49:00.958Z,2.90
2022-09-18T15:51:34.755Z,3.00
2022-09-18T15:54:22.406Z,3.10
2022-09-18T15:56:52.543Z,2.92
2022-09-18T15:59:35.760Z,3.00
2022-09-18T16:02:19.598Z,3.50
2022-09-18T16:04:47.141Z,3.13
2022-09-18T16:07:22.379Z,2.80
2022-09-18T16:09:51.006Z,2.85
2022-09-18T16:12:32.736Z,2.90
2022-09-18T16:15:09.882Z,2.83
2022-09-18T16:17:39.949Z,2.97
2022-09-18T16:20:38.752Z,3.05
2022-09-18T16:23:24.861Z,3.53
2022-09-18T16:26:13.319Z,3.38
2022-09-18T16:28:46.355Z,3.70
2022-09-18T16:31:16.989Z,4.17
2022-09-18T16:33:55.729Z,3.83
2022-09-18T16:36:36.899Z,3.88
2022-09-18T16:39:08.399Z,3.85
2022-09-18T16:41:36.791Z,3.90
2022-09-18T16:44:05.840Z,3.87
2022-09-18T16:46:56.132Z,4.13
2022-09-18T16:49:26.894Z,3.60
2022-09-18T16:51:58.043Z,3.80
2022-09-18T16:54:26.443Z,3.85
2022-09-18T16:56:57.972Z,4.33
2022-09-18T16:59:29.511Z,3.80
2022-09-18T17:02:04.230Z,3.88
2022-09-18T17:04:32.848Z,3.92
2022-09-18T17:07:00.978Z,4.10
2022-09-18T17:09:28.647Z,3.97
2022-09-18T17:11:56.587Z,3.85
2022-09-18T17:14:24.562Z,3.75
2022-09-18T17:16:52.505Z,3.95
2022-09-18T17:19:20.855Z,3.88
2022-09-18T17:21:48.487Z,3.77
2022-09-18T17:24:17.687Z,4.18
2022-09-18T17:26:45.274Z,4.20
2022-09-18T17:29:12.695Z,3.72
2022-09-18T17:31:40.305Z,3.97
2022-09-18T17:34:07.910Z,4.27
2022-09-18T17:36:37.993Z,3.80
2022-09-18T17:39:05.593Z,3.95
2022-09-18T17:41:33.867Z,4.78
2022-09-18T17:44:01.542Z,4.22
2022-09-18T17:46:29.071Z,4.07
2022-09-18T17:48:58.327Z,3.90
2022-09-18T17:51:28.948Z,4.70
2022-09-18T17:54:00.264Z,3.88
2022-09-18T17:56:30.190Z,3.80
2022-09-18T17:59:06.764Z,3.73
2022-09-18T18:01:37.776Z,4.45
2022-09-18T18:04:06.228Z,4.18
2022-09-18T18:06:34.724Z,4.85
2022-09-18T18:09:02.281Z,3.97
2022-09-18T18:11:29.887Z,3.90
2022-09-18T18:13:57.331Z,4.22
2022-09-18T18:16:28.855Z,4.65
2022-09-18T18:19:03.580Z,4.57
2022-09-18T18:21:32.858Z,4.32
2022-09-18T18:24:04.069Z,4.50
2022-09-18T18:26:31.942Z,4.28
2022-09-18T18:28:59.556Z,4.38
2022-09-18T18:31:31.773Z,3.92
2022-09-18T18:33:59.527Z,4.15
2022-09-18T18:36:31.744Z,3.80
2022-09-18T18:39:04.466Z,3.40
2022-09-18T18:41:33.833Z,3.70
2022-09-18T18:44:05.840Z,3.72
2022-09-18T18:46:36.543Z,3.67
2022-09-18T18:49:10.130Z,3.13
2022-09-18T18:51:47.860Z,4.43
2022-09-18T18:54:17.942Z,3.63
2022-09-18T18:56:46.625Z,3.35
2022-09-18T18:59:16.734Z,3.97
2022-09-18T19:01:47.812Z,4.10
2022-09-18T19:04:19.347Z,3.72
2022-09-18T19:06:49.095Z,3.80
2022-09-18T19:09:22.420Z,3.70
2022-09-18T19:11:53.122Z,3.60
2022-09-18T19:14:23.192Z,3.73
2022-09-18T19:16:51.966Z,3.50
2022-09-18T19:19:21.330Z,3.55
2022-09-18T19:21:48.816Z,3.53
2022-09-18T19:24:18.840Z,2.80
2022-09-18T19:26:48.073Z,2.90
2022-09-18T19:29:18.797Z,3.20
2022-09-18T19:31:47.432Z,3.20
2022-09-18T19:34:17.462Z,2.88
2022-09-18T19:36:47.397Z,3.35
2022-09-18T19:39:15.656Z,2.90
2022-09-18T19:41:55.531Z,3.33
2022-09-18T19:44:31.611Z,2.90
2022-09-18T19:47:20.659Z,2.67
2022-09-18T19:49:50.048Z,2.80
2022-09-18T19:52:20.255Z,2.37
2022-09-18T19:54:49.074Z,2.35
2022-09-18T19:57:16.567Z,2.17
2022-09-18T19:59:44.378Z,2.28
2022-09-18T20:02:20.448Z,2.38
2022-09-18T20:04:47.974Z,2.80
2022-09-18T20:07:16.458Z,2.78
2022-09-18T20:09:44.351Z,2.25
2022-09-18T20:12:13.027Z,2.65
2022-09-18T20:14:40.549Z,2.10
2022-09-18T20:17:08.499Z,2.27
2022-09-18T20:19:36.597Z,2.10
2022-09-18T20:22:04.413Z,2.10
2022-09-18T20:24:32.947Z,1.80
2022-09-18T20:27:01.414Z,2.08
2022-09-18T20:29:29.579Z,2.07
2022-09-18T20:31:58.365Z,1.70
2022-09-18T20:34:26.314Z,2.03
2022-09-18T20:36:55.100Z,1.70
2022-09-18T20:39:22.892Z,2.00
2022-09-18T20:41:51.385Z,1.70
2022-09-18T20:44:19.347Z,2.03
2022-09-18T20:46:46.853Z,2.22
2022-09-18T20:49:17.673Z,1.90
2022-09-18T20:51:46.208Z,1.70
2022-09-18T20:54:15.274Z,1.80
2022-09-18T20:56:44.690Z,2.08
2022-09-18T20:59:17.414Z,2.55
2022-09-18T21:01:47.144Z,2.50
2022-09-18T21:04:19.511Z,2.03
2022-09-18T21:06:56.677Z,1.80
2022-09-18T21:09:27.399Z,2.00
2022-09-18T21:11:57.039Z,1.85
2022-09-18T21:14:26.639Z,1.88
2022-09-18T21:16:56.449Z,1.60
2022-09-18T21:19:26.442Z,1.90
2022-09-18T21:21:54.354Z,1.90
2022-09-18T21:24:22.350Z,1.67
2022-09-18T21:26:50.579Z,1.65
2022-09-18T21:29:23.818Z,1.80
2022-09-18T21:31:54.421Z,1.80
2022-09-18T21:34:24.816Z,1.42
2022-09-18T21:36:56.731Z,1.92
2022-09-18T21:39:26.194Z,1.95
2022-09-18T21:41:55.924Z,1.60
2022-09-18T21:44:27.298Z,1.83
2022-09-18T21:47:00.086Z,1.60
2022-09-18T21:49:29.389Z,1.50
2022-09-18T21:52:03.764Z,1.60
2022-09-18T21:54:32.180Z,1.73
2022-09-18T21:57:00.567Z,1.60
2022-09-18T21:59:30.804Z,1.52
2022-09-18T22:01:59.313Z,1.60
2022-09-18T22:04:29.570Z,1.73
2022-09-18T22:06:58.975Z,1.63
2022-09-18T22:09:31.680Z,1.60
2022-09-18T22:12:01.500Z,1.60
2022-09-18T22:14:34.208Z,1.83
2022-09-18T22:17:04.842Z,1.67
2022-09-18T22:19:38.189Z,1.70
2022-09-18T22:22:09.222Z,2.23
2022-09-18T22:24:36.710Z,1.85
2022-09-18T22:27:08.850Z,1.80
2022-09-18T22:29:41.512Z,1.70
2022-09-18T22:32:11.078Z,1.73
2022-09-18T22:34:38.695Z,2.07
2022-09-18T22:37:06.224Z,1.67
2022-09-18T22:39:33.799Z,1.92
2022-09-18T22:42:02.095Z,2.40
2022-09-18T22:44:31.343Z,1.90
2022-09-18T22:46:58.849Z,2.07
2022-09-18T22:49:26.396Z,2.22
2022-09-18T22:51:53.853Z,2.13
2022-09-18T22:54:26.199Z,2.00
2022-09-18T22:56:54.605Z,1.80
2022-09-18T22:59:24.734Z,2.27
2022-09-18T23:01:58.489Z,2.42
2022-09-18T23:04:29.462Z,2.15
2022-09-18T23:06:59.479Z,2.30
2022-09-18T23:09:28.255Z,2.03
2022-09-18T23:11:56.495Z,2.27
2022-09-18T23:14:27.923Z,2.25
2022-09-18T23:16:57.025Z,1.90
2022-09-18T23:19:27.251Z,1.92
2022-09-18T23:21:55.797Z,2.50
2022-09-18T23:24:24.038Z,2.30
2022-09-18T23:26:53.157Z,3.10
2022-09-18T23:29:22.751Z,2.58
2022-09-18T23:31:55.408Z,2.20
2022-09-18T23:34:25.623Z,2.30
2022-09-18T23:36:55.023Z,2.37
2022-09-18T23:39:28.274Z,2.40
2022-09-18T23:41:57.411Z,2.60
2022-09-18T23:44:25.426Z,2.53
2022-09-18T23:46:53.015Z,2.60
2022-09-18T23:49:24.042Z,3.13
2022-09-18T23:51:54.243Z,2.53
2022-09-18T23:54:26.152Z,4.90
2022-09-18T23:56:54.297Z,4.82
2022-09-18T23:59:23.790Z,3.50
